Time;durP1;ratioP1;P1;durP2;ratioP2;P2;SDS_P1;SDS_P2;PMS_P1;PMS_P2;Temp;Humidity;BMP_temperature;BMP_pressure;BME280_temperature;BME280_humidity;BME280_pressure;Samples;Min_cycle;Max_cycle;Signal;HPM_P1;HPM_P2
2023/03/07 00:00:43;;;;;;;81.00;17.42;;;4.90;99.90;;;;;;5033578;28;20205;-85
2023/03/07 00:03:15;;;;;;;85.68;19.20;;;4.90;99.90;;;;;;5032726;28;20197;-85
2023/03/07 00:05:41;;;;;;;79.05;15.57;;;4.90;99.90;;;;;;5032678;28;20165;-85
2023/03/07 00:08:07;;;;;;;77.28;16.25;;;4.90;99.90;;;;;;5034079;28;20189;-85
2023/03/07 00:10:33;;;;;;;73.28;15.30;;;5.00;99.90;;;;;;5032473;28;20225;-85
2023/03/07 00:12:59;;;;;;;75.07;13.13;;;5.00;99.90;;;;;;5032958;28;20205;-85
2023/03/07 00:15:29;;;;;;;73.70;13.40;;;5.00;99.90;;;;;;5033128;28;20166;-84
2023/03/07 00:17:55;;;;;;;76.40;14.98;;;5.00;99.90;;;;;;5033168;28;20436;-85
2023/03/07 00:20:21;;;;;;;72.47;12.75;;;4.90;99.90;;;;;;5033321;28;20166;-86
2023/03/07 00:22:47;;;;;;;72.07;12.20;;;4.90;99.90;;;;;;5033692;28;20196;-85
2023/03/07 00:25:13;;;;;;;73.43;12.98;;;5.00;99.90;;;;;;5033577;28;20416;-85
2023/03/07 00:27:40;;;;;;;75.20;14.88;;;5.00;99.90;;;;;;5031973;28;20627;-85
2023/03/07 00:30:06;;;;;;;72.75;12.35;;;5.00;99.90;;;;;;5031481;28;20170;-86
2023/03/07 00:32:32;;;;;;;68.78;10.63;;;5.10;99.90;;;;;;5032018;28;20189;-85
2023/03/07 00:34:59;;;;;;;72.47;11.67;;;5.10;99.90;;;;;;5035039;28;20201;-86
2023/03/07 00:37:25;;;;;;;68.72;10.43;;;5.20;99.90;;;;;;5033172;28;20177;-86
2023/03/07 00:39:51;;;;;;;69.15;12.18;;;5.20;99.90;;;;;;5031453;28;20237;-86
2023/03/07 00:42:17;;;;;;;67.57;9.50;;;5.20;99.90;;;;;;5032380;28;20205;-86
2023/03/07 00:44:42;;;;;;;67.70;10.90;;;5.20;99.90;;;;;;5030836;28;20178;-86
2023/03/07 00:47:08;;;;;;;68.27;10.80;;;5.20;99.90;;;;;;5031945;28;20460;-86
2023/03/07 00:49:34;;;;;;;67.80;9.25;;;5.20;99.90;;;;;;5032479;28;20170;-85
2023/03/07 00:52:00;;;;;;;68.87;14.77;;;5.20;99.90;;;;;;5032623;28;20193;-85
2023/03/07 00:54:26;;;;;;;68.13;12.30;;;5.30;99.00;;;;;;5032313;28;20166;-86
2023/03/07 00:56:52;;;;;;;68.57;12.50;;;5.30;98.80;;;;;;5032826;28;20427;-86
2023/03/07 00:59:17;;;;;;;70.57;15.33;;;5.30;99.40;;;;;;5032401;28;20447;-86
2023/03/07 01:01:43;;;;;;;71.20;19.87;;;5.30;97.40;;;;;;5032695;28;20193;-85
2023/03/07 01:04:09;;;;;;;67.37;12.63;;;5.30;96.90;;;;;;5032227;28;20166;-86
2023/03/07 01:06:35;;;;;;;70.30;18.00;;;5.30;96.70;;;;;;5031680;28;20539;-85
2023/03/07 01:09:06;;;;;;;68.57;15.90;;;5.30;96.30;;;;;;5030979;28;20197;-85
2023/03/07 01:11:35;;;;;;;69.05;12.52;;;5.20;96.80;;;;;;5031924;28;20217;-85
2023/03/07 01:14:06;;;;;;;68.55;12.85;;;5.30;97.20;;;;;;5032463;28;20150;-86
2023/03/07 01:16:34;;;;;;;68.63;10.43;;;5.30;96.80;;;;;;5030973;28;20177;-85
2023/03/07 01:19:03;;;;;;;68.47;14.25;;;5.30;96.40;;;;;;5031000;28;20193;-85
2023/03/07 01:21:35;;;;;;;69.30;15.60;;;5.40;95.60;;;;;;5030731;28;20177;-86
2023/03/07 01:24:01;;;;;;;70.60;19.50;;;5.30;95.20;;;;;;5030856;28;20182;-85
2023/03/07 01:26:29;;;;;;;69.20;18.27;;;5.30;95.30;;;;;;5031211;28;20193;-86
2023/03/07 01:28:58;;;;;;;69.85;18.50;;;5.30;95.80;;;;;;5030920;28;20401;-85
2023/03/07 01:31:25;;;;;;;68.72;14.25;;;5.30;96.10;;;;;;5031597;28;20164;-85
2023/03/07 01:33:52;;;;;;;68.45;11.80;;;5.30;97.20;;;;;;5029919;28;20212;-85
2023/03/07 01:36:20;;;;;;;68.43;13.25;;;5.30;97.10;;;;;;5031487;28;20162;-85
2023/03/07 01:38:47;;;;;;;68.03;12.68;;;5.30;97.00;;;;;;5031240;28;20165;-85
2023/03/07 01:41:13;;;;;;;67.53;12.30;;;5.30;97.50;;;;;;5031070;28;20162;-86
2023/03/07 01:43:38;;;;;;;67.60;12.15;;;5.20;98.30;;;;;;5031489;28;20209;-85
2023/03/07 01:46:52;;;;;;;68.13;12.30;;;5.30;98.50;;;;;;5030715;28;20197;-86
2023/03/07 01:49:23;;;;;;;68.07;12.02;;;5.30;98.10;;;;;;5023687;28;20191;-85
2023/03/07 01:52:19;;;;;;;66.78;10.60;;;5.30;98.10;;;;;;5031779;28;20240;-86
2023/03/07 01:54:50;;;;;;;69.07;12.30;;;5.20;99.40;;;;;;5027965;28;20204;-85
2023/03/07 01:57:19;;;;;;;66.15;9.60;;;5.20;99.80;;;;;;5034936;28;20150;-85
2023/03/07 01:59:47;;;;;;;67.43;10.88;;;5.20;99.70;;;;;;5035023;28;20174;-85
2023/03/07 02:02:16;;;;;;;68.15;10.98;;;5.20;99.90;;;;;;5035423;28;20196;-86
2023/03/07 02:04:49;;;;;;;66.80;8.63;;;5.20;99.90;;;;;;5034790;28;20249;-85
2023/03/07 02:07:16;;;;;;;68.18;9.38;;;5.20;99.90;;;;;;5034231;28;20193;-85
2023/03/07 02:09:45;;;;;;;67.75;11.02;;;5.20;99.90;;;;;;5034445;28;20172;-86
2023/03/07 02:12:12;;;;;;;68.93;11.60;;;5.20;99.90;;;;;;5035326;28;20174;-85
2023/03/07 02:14:42;;;;;;;68.47;9.95;;;5.20;99.90;;;;;;5034025;28;20193;-85
2023/03/07 02:17:08;;;;;;;68.00;9.85;;;5.20;99.90;;;;;;5034904;28;20198;-86
2023/03/07 02:19:57;;;;;;;72.20;16.50;;;5.20;99.90;;;;;;5035932;28;20178;-86
2023/03/07 02:22:23;;;;;;;67.68;10.02;;;5.20;99.90;;;;;;5035767;28;20176;-85
2023/03/07 02:24:57;;;;;;;69.25;12.07;;;5.20;99.30;;;;;;5034710;28;20181;-86
2023/03/07 02:27:24;;;;;;;68.93;12.10;;;5.20;99.10;;;;;;5034643;28;20209;-86
2023/03/07 02:29:50;;;;;;;69.15;13.50;;;5.20;99.10;;;;;;5034632;28;20169;-85
2023/03/07 02:32:16;;;;;;;71.90;15.93;;;5.30;98.50;;;;;;5034909;28;20182;-86
2023/03/07 02:34:42;;;;;;;71.40;13.67;;;5.30;97.80;;;;;;5034015;28;20478;-86
2023/03/07 02:37:16;;;;;;;69.03;11.32;;;5.20;97.40;;;;;;5033534;28;20177;-86
2023/03/07 02:39:46;;;;;;;69.28;13.65;;;5.20;97.30;;;;;;5033814;28;20150;-85
2023/03/07 02:42:24;;;;;;;68.93;13.30;;;5.20;97.50;;;;;;5034807;28;20201;-86
2023/03/07 02:44:58;;;;;;;70.63;13.93;;;5.20;96.70;;;;;;5033987;28;20638;-85
2023/03/07 02:47:24;;;;;;;70.75;15.73;;;5.20;97.40;;;;;;5033991;28;20199;-85
2023/03/07 02:49:50;;;;;;;72.22;13.85;;;5.20;98.40;;;;;;5033579;28;20197;-86
2023/03/07 02:52:16;;;;;;;70.60;12.83;;;5.30;98.00;;;;;;5033149;28;20189;-85
2023/03/07 02:54:41;;;;;;;70.37;15.73;;;5.30;98.50;;;;;;5033625;28;20149;-85
2023/03/07 02:57:08;;;;;;;71.10;13.90;;;5.30;98.90;;;;;;5034900;28;20634;-86
2023/03/07 02:59:34;;;;;;;72.40;14.35;;;5.30;98.80;;;;;;5034069;28;20162;-86
2023/03/07 03:01:59;;;;;;;70.57;13.90;;;5.30;98.70;;;;;;5032534;28;20262;-85
2023/03/07 03:04:25;;;;;;;70.70;13.17;;;5.30;98.70;;;;;;5033928;28;20400;-86
2023/03/07 03:06:51;;;;;;;68.97;12.13;;;5.30;98.40;;;;;;5033449;28;20197;-85
2023/03/07 03:09:16;;;;;;;68.70;12.00;;;5.30;98.50;;;;;;5034471;28;20261;-85
2023/03/07 03:11:42;;;;;;;68.70;13.53;;;5.30;98.40;;;;;;5033930;28;20553;-85
2023/03/07 03:14:08;;;;;;;70.73;14.87;;;5.30;98.10;;;;;;5034394;28;20166;-85
2023/03/07 03:16:34;;;;;;;69.73;15.00;;;5.30;97.10;;;;;;5033498;28;20815;-85
2023/03/07 03:19:00;;;;;;;69.90;15.83;;;5.30;96.40;;;;;;5033534;28;20189;-86
2023/03/07 03:21:26;;;;;;;70.72;13.18;;;5.30;96.90;;;;;;5033329;28;20188;-86
2023/03/07 03:23:51;;;;;;;71.70;16.07;;;5.30;96.20;;;;;;5033212;28;20166;-86
2023/03/07 03:26:17;;;;;;;70.90;13.83;;;5.20;97.50;;;;;;5032463;28;20463;-85
2023/03/07 03:28:43;;;;;;;71.67;16.53;;;5.20;97.10;;;;;;5033801;28;20177;-86
2023/03/07 03:31:13;;;;;;;71.17;16.50;;;5.20;97.40;;;;;;5033937;28;20189;-86
2023/03/07 03:33:40;;;;;;;71.20;15.52;;;5.20;97.50;;;;;;5033223;28;20196;-86
2023/03/07 03:36:13;;;;;;;71.22;15.52;;;5.20;98.00;;;;;;5033378;28;20170;-85
2023/03/07 03:38:38;;;;;;;74.05;22.35;;;5.20;98.50;;;;;;5033455;28;20614;-85
2023/03/07 03:41:05;;;;;;;74.67;20.00;;;5.20;97.70;;;;;;5036208;28;20204;-86
2023/03/07 03:43:31;;;;;;;70.40;14.07;;;5.20;97.50;;;;;;5031848;28;20197;-86
2023/03/07 03:45:57;;;;;;;75.63;15.25;;;5.20;97.60;;;;;;5032616;28;20177;-87
2023/03/07 03:48:23;;;;;;;73.75;14.82;;;5.10;98.10;;;;;;5033293;28;20172;-86
2023/03/07 03:50:49;;;;;;;72.33;15.73;;;5.20;97.70;;;;;;5033168;28;20224;-86
2023/03/07 03:53:15;;;;;;;71.80;12.33;;;5.10;97.50;;;;;;5032845;28;20456;-86
2023/03/07 03:55:42;;;;;;;70.87;15.07;;;5.10;97.30;;;;;;5033215;28;20435;-86
2023/03/07 03:58:07;;;;;;;74.03;16.80;;;5.10;96.20;;;;;;5031946;28;20416;-86
2023/03/07 04:00:33;;;;;;;70.70;14.83;;;5.20;96.90;;;;;;5033157;28;20221;-87
2023/03/07 04:02:59;;;;;;;81.40;28.63;;;5.20;95.70;;;;;;5031760;28;20224;-87
2023/03/07 04:05:24;;;;;;;69.77;13.77;;;5.10;96.00;;;;;;5033327;28;20170;-85
2023/03/07 04:07:50;;;;;;;74.50;21.53;;;5.10;96.30;;;;;;5032731;28;20223;-86
2023/03/07 04:10:16;;;;;;;70.73;13.57;;;5.10;95.90;;;;;;5032910;28;20170;-87
2023/03/07 04:12:42;;;;;;;70.67;15.37;;;5.10;95.50;;;;;;5033228;28;20189;-86
2023/03/07 04:15:08;;;;;;;71.60;13.70;;;5.20;94.60;;;;;;5031946;28;20174;-86
2023/03/07 04:17:34;;;;;;;72.25;19.30;;;5.20;93.80;;;;;;5032319;28;20173;-86
2023/03/07 04:20:00;;;;;;;72.60;18.13;;;5.20;92.70;;;;;;5032796;28;20173;-86
2023/03/07 04:22:25;;;;;;;70.73;17.23;;;5.20;92.40;;;;;;5032489;28;20189;-87
2023/03/07 04:24:51;;;;;;;71.30;16.93;;;5.20;91.60;;;;;;5031796;28;20233;-86
2023/03/07 04:27:17;;;;;;;73.10;20.50;;;5.20;92.90;;;;;;5032936;28;20200;-86
2023/03/07 04:29:42;;;;;;;71.97;17.30;;;5.20;91.80;;;;;;5032948;28;20205;-86
2023/03/07 04:32:08;;;;;;;74.50;21.17;;;5.20;94.20;;;;;;5032846;28;20189;-85
2023/03/07 04:34:37;;;;;;;77.50;22.57;;;5.20;94.90;;;;;;5032389;28;20216;-86
2023/03/07 04:37:02;;;;;;;76.38;23.63;;;5.20;95.50;;;;;;5031854;28;20166;-85
2023/03/07 04:39:28;;;;;;;77.47;22.80;;;5.20;94.30;;;;;;5032337;28;20173;-85
2023/03/07 04:41:54;;;;;;;74.00;19.00;;;5.30;94.30;;;;;;5033267;28;20181;-86
2023/03/07 04:44:20;;;;;;;74.37;20.37;;;5.20;93.40;;;;;;5033479;28;20229;-85
2023/03/07 04:46:45;;;;;;;76.77;23.77;;;5.30;94.80;;;;;;5032967;28;20197;-85
2023/03/07 04:49:11;;;;;;;74.00;19.47;;;5.20;95.50;;;;;;5033213;28;20441;-86
2023/03/07 04:51:37;;;;;;;77.80;22.67;;;5.20;97.50;;;;;;5032883;28;20405;-85
2023/03/07 04:54:03;;;;;;;75.27;20.77;;;5.20;99.40;;;;;;5032856;28;20472;-85
2023/03/07 04:56:28;;;;;;;76.50;20.53;;;5.20;99.10;;;;;;5032382;28;20162;-85
2023/03/07 04:58:57;;;;;;;73.50;20.10;;;5.20;99.10;;;;;;5031783;28;20908;-85
2023/03/07 05:01:23;;;;;;;77.68;20.75;;;5.20;99.40;;;;;;5031820;28;20601;-85
2023/03/07 05:03:48;;;;;;;80.17;19.90;;;5.20;99.90;;;;;;5032667;28;20174;-85
2023/03/07 05:06:15;;;;;;;76.00;23.40;;;5.10;99.90;;;;;;5032553;28;20198;-85
2023/03/07 05:08:41;;;;;;;75.03;17.95;;;5.20;99.90;;;;;;5032154;28;20225;-85
2023/03/07 05:11:06;;;;;;;75.97;16.27;;;5.20;99.90;;;;;;5032181;28;20157;-85
2023/03/07 05:13:32;;;;;;;75.20;18.00;;;5.10;99.90;;;;;;5035511;28;20196;-84
2023/03/07 05:15:58;;;;;;;75.10;14.97;;;5.10;99.90;;;;;;5032639;28;20423;-85
2023/03/07 05:18:25;;;;;;;73.32;14.43;;;5.00;99.90;;;;;;5031897;28;20177;-85
2023/03/07 05:20:51;;;;;;;74.22;15.02;;;5.00;99.90;;;;;;5033228;28;20194;-85
2023/03/07 05:23:18;;;;;;;75.07;14.70;;;5.00;99.90;;;;;;5032105;28;20181;-85
2023/03/07 05:25:45;;;;;;;77.75;14.98;;;5.10;99.90;;;;;;5033871;28;20166;-85
2023/03/07 05:28:11;;;;;;;77.00;15.50;;;5.10;99.90;;;;;;5036411;28;20161;-85
2023/03/07 05:30:37;;;;;;;75.93;13.10;;;5.10;99.90;;;;;;5036317;28;20544;-85
2023/03/07 05:33:03;;;;;;;78.83;13.17;;;5.10;99.90;;;;;;5036196;28;20463;-85
2023/03/07 05:35:29;;;;;;;74.40;13.20;;;5.00;99.90;;;;;;5109640;23;20234;-85
2023/03/07 05:37:54;;;;;;;79.23;14.93;;;5.00;99.90;;;;;;5042744;28;20432;-84
2023/03/07 05:40:23;;;;;;;76.57;16.37;;;5.10;99.90;;;;;;5041280;28;20204;-84
2023/03/07 05:42:49;;;;;;;80.60;18.52;;;5.00;99.90;;;;;;5042762;28;20238;-85
2023/03/07 05:45:23;;;;;;;79.17;19.40;;;5.00;99.90;;;;;;5042632;28;20247;-85
2023/03/07 05:47:49;;;;;;;79.97;18.05;;;5.00;99.90;;;;;;5041632;28;20482;-85
2023/03/07 05:50:15;;;;;;;79.00;18.43;;;5.00;99.90;;;;;;5042591;28;20165;-85
2023/03/07 05:52:40;;;;;;;79.90;17.90;;;5.00;99.90;;;;;;5041242;28;20431;-85
2023/03/07 05:55:24;;;;;;;81.47;15.40;;;5.10;99.90;;;;;;5042882;28;20399;-84
2023/03/07 05:57:53;;;;;;;82.90;16.70;;;5.10;99.90;;;;;;5041806;28;20169;-84
2023/03/07 06:00:19;;;;;;;80.07;14.35;;;5.10;99.90;;;;;;5042601;28;20672;-84
2023/03/07 06:02:45;;;;;;;79.55;14.75;;;5.10;99.90;;;;;;5042154;28;20188;-84
2023/03/07 06:05:11;;;;;;;77.40;14.37;;;5.00;99.90;;;;;;5042652;28;20161;-84
2023/03/07 06:07:36;;;;;;;76.53;13.00;;;5.10;99.90;;;;;;5041023;28;20447;-84
2023/03/07 06:10:09;;;;;;;74.40;13.67;;;5.10;99.90;;;;;;5042642;28;20408;-84
2023/03/07 06:12:40;;;;;;;75.13;15.02;;;5.00;99.90;;;;;;5040766;28;20186;-85
2023/03/07 06:15:09;;;;;;;73.97;14.13;;;5.00;99.90;;;;;;5041463;28;20172;-85
2023/03/07 06:17:37;;;;;;;74.72;13.82;;;5.00;99.90;;;;;;5040577;28;20169;-84
2023/03/07 06:20:06;;;;;;;77.05;14.07;;;5.10;99.90;;;;;;5041625;28;20579;-84
2023/03/07 06:22:41;;;;;;;75.82;14.68;;;5.00;99.90;;;;;;5041070;28;20201;-85
2023/03/07 06:25:08;;;;;;;75.85;16.55;;;5.10;99.90;;;;;;5041165;28;20520;-84
2023/03/07 06:27:36;;;;;;;73.65;13.85;;;5.10;99.90;;;;;;5041441;28;20185;-84
2023/03/07 06:30:04;;;;;;;75.00;13.43;;;5.10;99.90;;;;;;5039764;28;20197;-84
2023/03/07 06:32:31;;;;;;;77.82;15.45;;;5.10;99.90;;;;;;5039455;28;20185;-84
2023/03/07 06:34:57;;;;;;;74.22;15.10;;;5.10;99.90;;;;;;5039980;28;20181;-84
2023/03/07 06:37:23;;;;;;;76.72;14.68;;;5.10;99.90;;;;;;5038904;28;20196;-84
2023/03/07 06:39:49;;;;;;;76.27;13.30;;;5.10;99.90;;;;;;5041394;28;20191;-84
2023/03/07 06:42:18;;;;;;;74.97;13.93;;;5.10;99.90;;;;;;5040887;28;20423;-84
2023/03/07 06:44:44;;;;;;;76.95;14.77;;;5.10;99.90;;;;;;5023811;28;20411;-84
2023/03/07 06:47:09;;;;;;;79.60;15.73;;;5.10;99.90;;;;;;5041568;28;20185;-84
2023/03/07 06:49:35;;;;;;;76.17;12.50;;;5.20;99.90;;;;;;5039654;28;20169;-84
2023/03/07 06:52:01;;;;;;;82.67;13.93;;;5.20;99.90;;;;;;5041304;28;20181;-84
2023/03/07 06:54:26;;;;;;;76.30;12.77;;;5.20;99.90;;;;;;5039432;28;20233;-84
2023/03/07 06:56:55;;;;;;;78.80;15.17;;;5.10;99.90;;;;;;5040621;28;20199;-84
2023/03/07 06:59:21;;;;;;;78.13;16.05;;;5.10;99.90;;;;;;5039429;28;20177;-84
2023/03/07 07:01:47;;;;;;;77.60;14.77;;;5.10;99.90;;;;;;5040326;28;20185;-84
2023/03/07 07:04:16;;;;;;;77.85;15.98;;;5.10;99.90;;;;;;5040431;28;20161;-84
2023/03/07 07:06:41;;;;;;;78.32;15.18;;;5.10;99.90;;;;;;5040866;28;20203;-83
2023/03/07 07:09:10;;;;;;;78.13;13.70;;;5.20;99.90;;;;;;5040676;28;20594;-84
2023/03/07 07:11:36;;;;;;;79.38;12.48;;;5.20;99.90;;;;;;5038663;28;20157;-84
2023/03/07 07:14:02;;;;;;;77.20;14.10;;;5.30;99.90;;;;;;5038963;28;20182;-84
2023/03/07 07:16:28;;;;;;;82.50;13.83;;;5.20;99.90;;;;;;5039306;28;20176;-84
2023/03/07 07:18:53;;;;;;;76.60;13.40;;;5.30;99.90;;;;;;5039262;28;20659;-84
2023/03/07 07:21:19;;;;;;;77.57;13.97;;;5.30;99.90;;;;;;5039437;28;20191;-83
2023/03/07 07:23:45;;;;;;;77.13;14.80;;;5.20;99.90;;;;;;5039106;28;20184;-84
2023/03/07 07:26:11;;;;;;;76.10;15.07;;;5.20;99.90;;;;;;5041298;28;20451;-84
2023/03/07 07:28:37;;;;;;;76.07;12.77;;;5.20;99.90;;;;;;5041387;28;20408;-84
2023/03/07 07:31:02;;;;;;;78.90;13.97;;;5.20;99.90;;;;;;5039721;28;20816;-84
2023/03/07 07:33:34;;;;;;;77.70;15.60;;;5.30;99.90;;;;;;5039807;28;20213;-83
2023/03/07 07:36:00;;;;;;;80.40;14.88;;;5.40;99.90;;;;;;5038726;28;20428;-83
2023/03/07 07:38:25;;;;;;;74.80;12.73;;;5.30;99.90;;;;;;5038915;28;20223;-84
2023/03/07 07:40:55;;;;;;;74.00;12.23;;;5.20;99.90;;;;;;5039642;28;20169;-84
2023/03/07 07:43:26;;;;;;;75.85;14.68;;;5.20;99.90;;;;;;5038606;28;20729;-84
2023/03/07 07:45:55;;;;;;;77.80;14.23;;;5.20;99.90;;;;;;5039682;28;20235;-83
2023/03/07 07:48:21;;;;;;;74.30;12.80;;;5.20;99.90;;;;;;5040041;28;20288;-84
2023/03/07 07:50:47;;;;;;;73.95;11.77;;;5.20;99.90;;;;;;5039428;28;20165;-83
2023/03/07 07:53:31;;;;;;;72.60;11.73;;;5.20;99.90;;;;;;5039443;28;20193;-83
2023/03/07 07:56:02;;;;;;;76.03;13.13;;;5.30;99.90;;;;;;5039346;28;20883;-83
2023/03/07 07:58:31;;;;;;;74.35;11.68;;;5.20;99.90;;;;;;5038934;28;20161;-84
2023/03/07 08:01:02;;;;;;;79.05;15.82;;;5.20;99.90;;;;;;5038784;28;20244;-84
2023/03/07 08:03:28;;;;;;;76.25;14.52;;;5.30;99.90;;;;;;5038752;28;20603;-84
2023/03/07 08:05:56;;;;;;;76.87;12.73;;;5.30;99.90;;;;;;5038701;28;20176;-84
2023/03/07 08:08:25;;;;;;;74.35;13.02;;;5.30;99.90;;;;;;5038138;28;20157;-83
2023/03/07 08:10:54;;;;;;;73.72;14.15;;;5.30;99.90;;;;;;5037179;28;20203;-84
2023/03/07 08:13:22;;;;;;;75.05;12.93;;;5.30;99.90;;;;;;5037980;28;20193;-84
2023/03/07 08:15:51;;;;;;;74.35;13.75;;;5.30;99.90;;;;;;5038422;28;20161;-83
2023/03/07 08:18:20;;;;;;;77.72;16.13;;;5.40;99.90;;;;;;5038146;28;20165;-84
2023/03/07 08:20:45;;;;;;;75.78;13.40;;;5.50;99.90;;;;;;5038534;28;20161;-83
2023/03/07 08:23:12;;;;;;;75.03;11.80;;;5.50;99.90;;;;;;5037682;28;20189;-83
2023/03/07 08:25:37;;;;;;;72.30;13.57;;;5.50;99.90;;;;;;5037738;28;20173;-83
2023/03/07 08:28:12;;;;;;;73.60;13.97;;;5.50;99.90;;;;;;5036949;28;20552;-83
2023/03/07 08:30:40;;;;;;;77.78;15.68;;;5.60;99.90;;;;;;5037198;28;20491;-84
2023/03/07 08:33:06;;;;;;;73.55;16.45;;;5.50;99.90;;;;;;5038556;28;20192;-84
2023/03/07 08:35:38;;;;;;;71.33;11.93;;;5.60;99.90;;;;;;5037121;28;20188;-84
2023/03/07 08:38:04;;;;;;;75.30;11.88;;;5.50;99.90;;;;;;5039280;28;20149;-84
2023/03/07 08:40:30;;;;;;;72.07;12.67;;;5.60;99.90;;;;;;5037055;28;20173;-84
2023/03/07 08:42:58;;;;;;;74.73;12.03;;;5.60;99.90;;;;;;5036989;28;20212;-84
2023/03/07 08:45:32;;;;;;;72.25;12.60;;;5.80;99.90;;;;;;5038007;28;20400;-84
2023/03/07 08:47:57;;;;;;;73.43;14.73;;;5.80;99.90;;;;;;5036941;28;20216;-84
2023/03/07 08:50:26;;;;;;;73.50;17.63;;;6.00;99.90;;;;;;5038536;28;20161;-84
2023/03/07 08:52:52;;;;;;;74.07;22.15;;;6.10;94.80;;;;;;5037762;28;20181;-84
2023/03/07 08:55:19;;;;;;;74.77;20.40;;;6.10;92.90;;;;;;5036348;28;20172;-84
2023/03/07 08:57:47;;;;;;;78.25;25.63;;;6.20;92.30;;;;;;5037870;28;20929;-84
2023/03/07 09:00:16;;;;;;;76.22;22.55;;;6.20;93.20;;;;;;5037778;28;20169;-83
2023/03/07 09:02:42;;;;;;;75.20;18.17;;;6.20;92.10;;;;;;5037168;28;20192;-84
2023/03/07 09:05:11;;;;;;;75.13;14.75;;;6.20;90.90;;;;;;5038123;28;20169;-84
2023/03/07 09:07:44;;;;;;;72.70;16.77;;;6.20;89.40;;;;;;5037262;28;20193;-84
2023/03/07 09:10:11;;;;;;;73.40;17.77;;;6.20;86.80;;;;;;5037425;28;20165;-83
2023/03/07 09:12:36;;;;;;;74.35;15.85;;;6.30;84.30;;;;;;5037710;28;20656;-83
2023/03/07 09:15:02;;;;;;;72.87;14.80;;;6.40;83.40;;;;;;5037184;28;20169;-84
2023/03/07 09:17:33;;;;;;;71.40;12.30;;;6.50;81.70;;;;;;5038573;28;20165;-84
2023/03/07 09:19:58;;;;;;;68.95;9.43;;;6.50;68.00;;;;;;5038416;28;20388;-84
2023/03/07 09:22:26;;;;;;;69.27;8.30;;;6.50;62.50;;;;;;5037167;28;20232;-84
2023/03/07 09:24:52;;;;;;;71.03;9.70;;;6.60;66.90;;;;;;5037830;28;20173;-84
2023/03/07 09:27:18;;;;;;;70.47;9.23;;;6.60;58.00;;;;;;5038028;28;20193;-84
2023/03/07 09:29:49;;;;;;;70.30;8.30;;;6.60;53.00;;;;;;5038143;28;20451;-84
2023/03/07 09:32:15;;;;;;;74.50;10.00;;;6.60;54.20;;;;;;5037362;28;20188;-84
2023/03/07 09:34:41;;;;;;;69.20;8.93;;;6.60;55.20;;;;;;5037204;28;20672;-84
2023/03/07 09:37:07;;;;;;;70.00;10.03;;;6.60;53.40;;;;;;5036736;28;20411;-84
2023/03/07 09:39:32;;;;;;;69.37;10.60;;;6.60;55.90;;;;;;5038200;28;20173;-84
2023/03/07 09:42:08;;;;;;;70.47;10.17;;;6.60;59.70;;;;;;5040897;28;20228;-84
2023/03/07 09:44:50;;;;;;;69.40;9.30;;;6.70;54.30;;;;;;5037125;28;20157;-85
2023/03/07 09:47:32;;;;;;;71.07;11.57;;;6.60;59.60;;;;;;5038523;28;20730;-84
2023/03/07 09:50:01;;;;;;;69.25;10.90;;;6.60;60.30;;;;;;5038516;28;20506;-85
2023/03/07 09:52:32;;;;;;;69.97;8.13;;;6.70;53.50;;;;;;5038529;28;20181;-85
2023/03/07 09:55:05;;;;;;;69.85;9.73;;;6.70;49.60;;;;;;5037926;28;20150;-84
2023/03/07 09:57:46;;;;;;;69.95;8.63;;;6.70;47.90;;;;;;5038281;28;20669;-84
2023/03/07 10:00:39;;;;;;;70.60;10.15;;;6.80;53.40;;;;;;5036858;28;20180;-84
2023/03/07 10:03:46;;;;;;;70.78;8.90;;;6.80;56.60;;;;;;5036277;28;20196;-84
2023/03/07 10:06:24;;;;;;;70.45;9.07;;;6.90;59.10;;;;;;5026860;28;20205;-84
2023/03/07 10:08:50;;;;;;;70.13;9.02;;;7.00;62.20;;;;;;5036769;28;20200;-84
2023/03/07 10:11:29;;;;;;;71.03;10.80;;;7.10;62.30;;;;;;5036557;28;20165;-84
2023/03/07 10:14:15;;;;;;;72.90;10.88;;;7.10;67.00;;;;;;5039129;28;20153;-84
2023/03/07 10:17:07;;;;;;;72.45;10.35;;;7.10;60.20;;;;;;5055815;28;20177;-84
2023/03/07 10:19:45;;;;;;;70.65;8.30;;;7.20;56.60;;;;;;5040405;28;20659;-84
2023/03/07 10:22:44;;;;;;;70.75;9.38;;;7.20;56.50;;;;;;5040764;28;20196;-84
2023/03/07 10:25:25;;;;;;;69.20;9.20;;;7.20;61.60;;;;;;5041079;28;20675;-84
2023/03/07 10:27:57;;;;;;;69.47;10.43;;;7.20;65.50;;;;;;5040917;28;20188;-84
2023/03/07 10:30:23;;;;;;;68.75;9.95;;;7.20;58.80;;;;;;5040616;28;20517;-84
2023/03/07 10:32:54;;;;;;;67.77;8.87;;;7.10;58.90;;;;;;5040047;28;20181;-84
2023/03/07 10:35:27;;;;;;;68.35;9.52;;;7.00;63.90;;;;;;5040219;28;20432;-84
2023/03/07 10:38:03;;;;;;;69.45;13.20;;;7.00;69.60;;;;;;5040958;28;20153;-84
2023/03/07 10:41:04;;;;;;;71.05;13.25;;;7.00;76.20;;;;;;5040606;28;20164;-84
2023/03/07 10:43:33;;;;;;;68.88;11.63;;;7.00;73.80;;;;;;5008447;28;20203;-84
2023/03/07 10:46:00;;;;;;;71.22;12.70;;;7.10;79.60;;;;;;5040310;28;20173;-84
2023/03/07 10:48:26;;;;;;;69.13;13.27;;;7.10;76.80;;;;;;5041839;28;20184;-84
2023/03/07 10:51:24;;;;;;;69.82;13.95;;;7.20;75.90;;;;;;5041520;28;20158;-84
2023/03/07 10:53:51;;;;;;;69.00;10.73;;;7.30;73.90;;;;;;5026850;28;20181;-83
2023/03/07 10:56:18;;;;;;;69.45;10.10;;;7.40;60.20;;;;;;5041390;28;20235;-84
2023/03/07 10:59:04;;;;;;;68.35;8.30;;;7.30;57.80;;;;;;5040782;28;20258;-83
2023/03/07 11:01:31;;;;;;;73.55;9.60;;;7.30;52.60;;;;;;5041522;28;20165;-84
2023/03/07 11:04:01;;;;;;;68.47;9.57;;;7.20;56.50;;;;;;5041916;28;20236;-84
2023/03/07 11:06:43;;;;;;;69.00;8.70;;;7.20;59.20;;;;;;5041602;28;20177;-84
2023/03/07 11:09:19;;;;;;;69.45;10.57;;;7.20;65.30;;;;;;5041056;28;20217;-84
2023/03/07 11:11:50;;;;;;;69.57;11.85;;;7.20;68.60;;;;;;5041114;28;20181;-83
2023/03/07 11:14:20;;;;;;;70.70;10.10;;;7.30;74.10;;;;;;5040549;28;20161;-84
2023/03/07 11:16:54;;;;;;;69.50;9.88;;;7.30;69.20;;;;;;5039661;28;20164;-83
2023/03/07 11:19:42;;;;;;;71.30;15.40;;;7.40;66.20;;;;;;5040726;28;20164;-84
2023/03/07 11:22:25;;;;;;;68.80;9.68;;;7.40;73.30;;;;;;5039273;28;20185;-84
2023/03/07 11:25:11;;;;;;;69.60;10.32;;;7.40;64.60;;;;;;5040182;28;20149;-84
2023/03/07 11:27:46;;;;;;;70.20;11.52;;;7.40;65.00;;;;;;5038665;28;20208;-85
2023/03/07 11:30:12;;;;;;;69.13;10.35;;;7.30;69.40;;;;;;5040092;28;20232;-84
2023/03/07 11:32:41;;;;;;;69.90;12.10;;;7.30;67.50;;;;;;5039896;28;20209;-83
2023/03/07 11:35:22;;;;;;;75.35;15.48;;;7.40;74.30;;;;;;5196760;23;20479;-84
2023/03/07 11:38:04;;;;;;;72.93;10.80;;;7.40;65.50;;;;;;5040294;28;20150;-83
2023/03/07 11:40:36;;;;;;;69.22;12.07;;;7.50;72.70;;;;;;5040164;28;20165;-84
2023/03/07 11:43:21;;;;;;;68.97;10.02;;;7.50;67.50;;;;;;5039638;28;20229;-84
2023/03/07 11:45:55;;;;;;;71.40;15.65;;;7.40;69.00;;;;;;5039007;28;20158;-84
2023/03/07 11:49:04;;;;;;;70.53;14.30;;;7.40;71.60;;;;;;5039153;28;20149;-84
2023/03/07 11:52:06;;;;;;;69.90;10.43;;;7.40;68.50;;;;;;5034746;28;20181;-84
2023/03/07 11:54:51;;;;;;;74.05;22.48;;;7.40;79.70;;;;;;5040152;28;20241;-84
2023/03/07 11:57:57;;;;;;;73.13;15.15;;;7.50;74.00;;;;;;5039739;28;20478;-85
2023/03/07 12:00:48;;;;;;;71.53;11.75;;;7.50;76.30;;;;;;5038024;28;20169;-84
2023/03/07 12:03:43;;;;;;;71.35;13.65;;;7.50;76.70;;;;;;5037901;28;20256;-84
2023/03/07 12:06:15;;;;;;;69.75;13.75;;;7.50;79.20;;;;;;5039036;28;20694;-83
2023/03/07 12:09:02;;;;;;;75.63;18.55;;;7.60;84.20;;;;;;5037158;28;20200;-84
2023/03/07 12:11:40;;;;;;;70.47;13.65;;;7.70;83.20;;;;;;5038843;28;20160;-84
2023/03/07 12:14:12;;;;;;;73.57;14.07;;;7.80;78.90;;;;;;5038850;28;20236;-84
2023/03/07 12:17:02;;;;;;;74.60;13.00;;;7.80;66.50;;;;;;5037508;28;20169;-84
2023/03/07 12:19:41;;;;;;;68.95;8.63;;;7.80;69.50;;;;;;5038815;28;20181;-84
2023/03/07 12:22:51;;;;;;;71.03;11.65;;;7.80;63.00;;;;;;5038559;28;20181;-84
2023/03/07 12:25:38;;;;;;;69.63;11.32;;;7.60;65.50;;;;;;5046813;28;20264;-84
2023/03/07 12:28:37;;;;;;;70.05;10.23;;;7.60;67.30;;;;;;5037065;28;20188;-84
2023/03/07 12:31:29;;;;;;;74.15;11.65;;;7.60;73.30;;;;;;5054295;28;20714;-84
2023/03/07 12:34:25;;;;;;;73.75;13.60;;;7.50;74.30;;;;;;5037748;28;20161;-84
2023/03/07 12:36:59;;;;;;;72.13;14.80;;;7.40;70.40;;;;;;5037571;28;20244;-84
2023/03/07 12:39:31;;;;;;;72.88;16.45;;;7.30;69.40;;;;;;5037900;28;20164;-84
2023/03/07 12:42:34;;;;;;;71.55;14.27;;;7.20;76.50;;;;;;5038132;28;20185;-84
2023/03/07 12:45:15;;;;;;;75.35;13.88;;;7.10;75.30;;;;;;5038116;28;20145;-83
2023/03/07 12:47:52;;;;;;;74.15;15.07;;;7.00;83.40;;;;;;5038120;28;20181;-84
2023/03/07 12:50:29;;;;;;;73.82;18.50;;;6.80;84.00;;;;;;5036424;28;20153;-84
2023/03/07 12:53:27;;;;;;;75.05;21.27;;;6.40;96.30;;;;;;5049086;23;20316;-84
2023/03/07 12:56:11;;;;;;;76.15;22.42;;;6.10;99.90;;;;;;4992967;28;20600;-84